sensor_id;sensor_type;location;lat;lon;timestamp;temperature;humidity
22122;DHT22;11227;53.046;10.512;2022-12-18T00:00:16;14.50;99.90
22122;DHT22;11227;53.046;10.512;2022-12-18T00:04:23;14.50;99.90
22122;DHT22;11227;53.046;10.512;2022-12-18T00:08:25;14.40;99.90
22122;DHT22;11227;53.046;10.512;2022-12-18T00:12:27;14.50;99.90
22122;DHT22;11227;53.046;10.512;2022-12-18T00:16:30;14.50;99.90
22122;DHT22;11227;53.046;10.512;2022-12-18T00:20:38;14.50;99.90
22122;DHT22;11227;53.046;10.512;2022-12-18T00:24:41;14.50;99.90
22122;DHT22;11227;53.046;10.512;2022-12-18T00:28:43;14.40;99.90
22122;DHT22;11227;53.046;10.512;2022-12-18T00:32:45;14.40;99.90
22122;DHT22;11227;53.046;10.512;2022-12-18T00:36:47;14.40;99.90
22122;DHT22;11227;53.046;10.512;2022-12-18T00:40:49;14.40;99.90
22122;DHT22;11227;53.046;10.512;2022-12-18T00:44:51;14.50;99.90
22122;DHT22;11227;53.046;10.512;2022-12-18T00:48:53;14.40;99.90
22122;DHT22;11227;53.046;10.512;2022-12-18T00:52:54;14.50;99.90
22122;DHT22;11227;53.046;10.512;2022-12-18T00:56:56;14.40;99.90
22122;DHT22;11227;53.046;10.512;2022-12-18T01:00:58;14.50;99.90
22122;DHT22;11227;53.046;10.512;2022-12-18T01:05:00;14.40;99.90
22122;DHT22;11227;53.046;10.512;2022-12-18T01:09:02;14.50;99.90
22122;DHT22;11227;53.046;10.512;2022-12-18T01:13:04;14.50;99.90
22122;DHT22;11227;53.046;10.512;2022-12-18T01:17:05;14.40;99.90
22122;DHT22;11227;53.046;10.512;2022-12-18T01:21:09;14.50;99.90
22122;DHT22;11227;53.046;10.512;2022-12-18T01:25:11;14.40;99.90
22122;DHT22;11227;53.046;10.512;2022-12-18T01:29:13;14.40;99.90
22122;DHT22;11227;53.046;10.512;2022-12-18T01:33:14;14.50;99.90
22122;DHT22;11227;53.046;10.512;2022-12-18T01:37:16;14.40;99.90
22122;DHT22;11227;53.046;10.512;2022-12-18T01:41:20;14.50;99.90
22122;DHT22;11227;53.046;10.512;2022-12-18T01:45:28;14.40;99.90
22122;DHT22;11227;53.046;10.512;2022-12-18T01:49:30;14.50;99.90
22122;DHT22;11227;53.046;10.512;2022-12-18T01:53:32;14.40;99.90
22122;DHT22;11227;53.046;10.512;2022-12-18T01:57:34;14.50;99.90
22122;DHT22;11227;53.046;10.512;2022-12-18T02:01:37;14.50;99.90
22122;DHT22;11227;53.046;10.512;2022-12-18T02:14:32;14.50;99.90
22122;DHT22;11227;53.046;10.512;2022-12-18T02:18:41;14.50;99.90
22122;DHT22;11227;53.046;10.512;2022-12-18T02:23:06;14.40;99.90
22122;DHT22;11227;53.046;10.512;2022-12-18T02:27:11;14.40;99.90
22122;DHT22;11227;53.046;10.512;2022-12-18T02:31:17;14.40;99.90
22122;DHT22;11227;53.046;10.512;2022-12-18T02:35:26;14.40;99.90
22122;DHT22;11227;53.046;10.512;2022-12-18T02:39:29;14.40;99.90
22122;DHT22;11227;53.046;10.512;2022-12-18T02:43:32;14.40;99.90
22122;DHT22;11227;53.046;10.512;2022-12-18T02:47:37;14.40;99.90
22122;DHT22;11227;53.046;10.512;2022-12-18T02:51:56;14.40;99.90
22122;DHT22;11227;53.046;10.512;2022-12-18T02:56:21;14.40;99.90
22122;DHT22;11227;53.046;10.512;2022-12-18T03:00:34;14.40;99.90
22122;DHT22;11227;53.046;10.512;2022-12-18T03:04:47;14.40;99.90
22122;DHT22;11227;53.046;10.512;2022-12-18T03:08:57;14.40;99.90
22122;DHT22;11227;53.046;10.512;2022-12-18T03:13:21;14.40;99.90
22122;DHT22;11227;53.046;10.512;2022-12-18T03:17:27;14.50;99.90
22122;DHT22;11227;53.046;10.512;2022-12-18T03:21:40;14.40;99.90
22122;DHT22;11227;53.046;10.512;2022-12-18T03:25:45;14.40;99.90
22122;DHT22;11227;53.046;10.512;2022-12-18T03:30:15;14.40;99.90
22122;DHT22;11227;53.046;10.512;2022-12-18T03:34:21;14.40;99.90
22122;DHT22;11227;53.046;10.512;2022-12-18T03:38:24;14.40;99.90
22122;DHT22;11227;53.046;10.512;2022-12-18T03:47:21;14.40;99.90
22122;DHT22;11227;53.046;10.512;2022-12-18T03:51:39;14.40;99.90
22122;DHT22;11227;53.046;10.512;2022-12-18T03:55:44;14.40;99.90
22122;DHT22;11227;53.046;10.512;2022-12-18T03:59:50;14.40;99.90
22122;DHT22;11227;53.046;10.512;2022-12-18T04:03:54;14.40;99.90
22122;DHT22;11227;53.046;10.512;2022-12-18T04:07:57;14.40;99.90
22122;DHT22;11227;53.046;10.512;2022-12-18T04:11:59;14.40;99.90
22122;DHT22;11227;53.046;10.512;2022-12-18T04:16:01;14.40;99.90
22122;DHT22;11227;53.046;10.512;2022-12-18T04:20:03;14.40;99.90
22122;DHT22;11227;53.046;10.512;2022-12-18T04:24:05;14.40;99.90
22122;DHT22;11227;53.046;10.512;2022-12-18T04:28:07;14.40;99.90
22122;DHT22;11227;53.046;10.512;2022-12-18T04:32:09;14.40;99.90
22122;DHT22;11227;53.046;10.512;2022-12-18T04:36:11;14.40;99.90
22122;DHT22;11227;53.046;10.512;2022-12-18T04:40:13;14.40;99.90
22122;DHT22;11227;53.046;10.512;2022-12-18T04:44:15;14.40;99.90
22122;DHT22;11227;53.046;10.512;2022-12-18T04:48:17;14.40;99.90
22122;DHT22;11227;53.046;10.512;2022-12-18T04:52:19;14.40;99.90
22122;DHT22;11227;53.046;10.512;2022-12-18T04:56:21;14.40;99.90
22122;DHT22;11227;53.046;10.512;2022-12-18T05:00:23;14.40;99.90
22122;DHT22;11227;53.046;10.512;2022-12-18T05:04:25;14.50;99.90
22122;DHT22;11227;53.046;10.512;2022-12-18T05:08:26;14.40;99.90
22122;DHT22;11227;53.046;10.512;2022-12-18T05:12:29;14.40;99.90
22122;DHT22;11227;53.046;10.512;2022-12-18T05:16:32;14.40;99.90
22122;DHT22;11227;53.046;10.512;2022-12-18T05:20:33;14.50;99.90
22122;DHT22;11227;53.046;10.512;2022-12-18T05:24:35;14.50;99.90
22122;DHT22;11227;53.046;10.512;2022-12-18T05:28:37;14.50;99.90
22122;DHT22;11227;53.046;10.512;2022-12-18T05:32:39;14.50;99.90
22122;DHT22;11227;53.046;10.512;2022-12-18T05:36:41;14.50;99.90
22122;DHT22;11227;53.046;10.512;2022-12-18T05:40:43;14.50;99.90
22122;DHT22;11227;53.046;10.512;2022-12-18T05:44:45;14.50;99.90
22122;DHT22;11227;53.046;10.512;2022-12-18T05:48:46;14.50;99.90
22122;DHT22;11227;53.046;10.512;2022-12-18T05:52:48;14.50;99.90
22122;DHT22;11227;53.046;10.512;2022-12-18T05:56:50;14.50;99.90
22122;DHT22;11227;53.046;10.512;2022-12-18T06:00:51;14.50;99.90
22122;DHT22;11227;53.046;10.512;2022-12-18T06:04:53;14.50;99.90
22122;DHT22;11227;53.046;10.512;2022-12-18T06:08:56;14.50;99.90
22122;DHT22;11227;53.046;10.512;2022-12-18T06:12:59;14.50;99.90
22122;DHT22;11227;53.046;10.512;2022-12-18T06:17:01;14.50;99.90
22122;DHT22;11227;53.046;10.512;2022-12-18T06:21:03;14.50;99.90
22122;DHT22;11227;53.046;10.512;2022-12-18T06:25:05;14.50;99.90
22122;DHT22;11227;53.046;10.512;2022-12-18T06:29:08;14.50;99.90
22122;DHT22;11227;53.046;10.512;2022-12-18T06:33:09;14.50;99.90
22122;DHT22;11227;53.046;10.512;2022-12-18T06:37:11;14.50;99.90
22122;DHT22;11227;53.046;10.512;2022-12-18T06:41:18;14.50;99.90
22122;DHT22;11227;53.046;10.512;2022-12-18T06:45:20;14.50;99.90
22122;DHT22;11227;53.046;10.512;2022-12-18T06:49:22;14.60;99.90
22122;DHT22;11227;53.046;10.512;2022-12-18T06:53:32;14.50;99.90
22122;DHT22;11227;53.046;10.512;2022-12-18T06:57:34;14.50;99.90
22122;DHT22;11227;53.046;10.512;2022-12-18T07:01:35;14.50;99.90
22122;DHT22;11227;53.046;10.512;2022-12-18T07:05:40;14.50;99.90
22122;DHT22;11227;53.046;10.512;2022-12-18T07:09:42;14.50;99.90
22122;DHT22;11227;53.046;10.512;2022-12-18T07:13:45;14.50;99.90
22122;DHT22;11227;53.046;10.512;2022-12-18T07:17:47;14.50;99.90
22122;DHT22;11227;53.046;10.512;2022-12-18T07:21:50;14.50;99.90
22122;DHT22;11227;53.046;10.512;2022-12-18T07:25:51;14.50;99.90
22122;DHT22;11227;53.046;10.512;2022-12-18T07:29:53;14.50;99.90
22122;DHT22;11227;53.046;10.512;2022-12-18T07:33:56;14.50;99.90
22122;DHT22;11227;53.046;10.512;2022-12-18T07:37:58;14.50;99.90
22122;DHT22;11227;53.046;10.512;2022-12-18T07:41:59;14.50;99.90
22122;DHT22;11227;53.046;10.512;2022-12-18T07:46:21;14.50;99.90
22122;DHT22;11227;53.046;10.512;2022-12-18T07:50:23;14.50;99.90
22122;DHT22;11227;53.046;10.512;2022-12-18T07:54:25;14.50;99.90
22122;DHT22;11227;53.046;10.512;2022-12-18T07:58:28;14.50;99.90
22122;DHT22;11227;53.046;10.512;2022-12-18T08:02:31;14.50;99.90
22122;DHT22;11227;53.046;10.512;2022-12-18T08:06:33;14.50;99.90
22122;DHT22;11227;53.046;10.512;2022-12-18T08:10:35;14.50;99.90
22122;DHT22;11227;53.046;10.512;2022-12-18T08:14:36;14.50;99.90
22122;DHT22;11227;53.046;10.512;2022-12-18T08:18:38;14.50;99.90
22122;DHT22;11227;53.046;10.512;2022-12-18T08:22:41;14.50;99.90
22122;DHT22;11227;53.046;10.512;2022-12-18T08:26:43;14.50;99.90
22122;DHT22;11227;53.046;10.512;2022-12-18T08:31:05;14.50;99.90
22122;DHT22;11227;53.046;10.512;2022-12-18T08:35:07;14.50;99.90
22122;DHT22;11227;53.046;10.512;2022-12-18T08:39:10;14.50;99.90
22122;DHT22;11227;53.046;10.512;2022-12-18T08:43:12;14.50;99.90
22122;DHT22;11227;53.046;10.512;2022-12-18T08:47:32;14.40;99.90
22122;DHT22;11227;53.046;10.512;2022-12-18T08:51:35;14.50;99.90
22122;DHT22;11227;53.046;10.512;2022-12-18T08:55:37;14.40;99.90
22122;DHT22;11227;53.046;10.512;2022-12-18T08:59:39;14.40;99.90
22122;DHT22;11227;53.046;10.512;2022-12-18T09:03:40;14.50;99.90
22122;DHT22;11227;53.046;10.512;2022-12-18T09:07:43;14.50;99.90
22122;DHT22;11227;53.046;10.512;2022-12-18T09:11:45;14.50;99.90
22122;DHT22;11227;53.046;10.512;2022-12-18T09:15:49;14.50;99.90
22122;DHT22;11227;53.046;10.512;2022-12-18T09:19:51;14.50;99.90
22122;DHT22;11227;53.046;10.512;2022-12-18T09:23:54;14.50;99.90
22122;DHT22;11227;53.046;10.512;2022-12-18T09:27:56;14.50;99.90
22122;DHT22;11227;53.046;10.512;2022-12-18T09:31:58;14.50;99.90
22122;DHT22;11227;53.046;10.512;2022-12-18T09:36:02;14.50;99.90
22122;DHT22;11227;53.046;10.512;2022-12-18T09:40:04;14.50;99.90
22122;DHT22;11227;53.046;10.512;2022-12-18T09:44:18;14.50;99.90
22122;DHT22;11227;53.046;10.512;2022-12-18T09:48:25;14.50;99.90
22122;DHT22;11227;53.046;10.512;2022-12-18T09:52:34;14.50;99.90
22122;DHT22;11227;53.046;10.512;2022-12-18T09:56:41;14.60;99.90
22122;DHT22;11227;53.046;10.512;2022-12-18T10:00:44;14.50;99.90
22122;DHT22;11227;53.046;10.512;2022-12-18T10:05:00;14.50;99.90
22122;DHT22;11227;53.046;10.512;2022-12-18T10:13:26;14.60;99.90
22122;DHT22;11227;53.046;10.512;2022-12-18T10:17:45;14.50;99.90
22122;DHT22;11227;53.046;10.512;2022-12-18T10:26:17;14.50;99.90
22122;DHT22;11227;53.046;10.512;2022-12-18T10:30:21;14.50;99.90
22122;DHT22;11227;53.046;10.512;2022-12-18T10:34:23;14.50;99.90
22122;DHT22;11227;53.046;10.512;2022-12-18T10:38:30;14.50;99.90
22122;DHT22;11227;53.046;10.512;2022-12-18T10:42:33;14.50;99.90
22122;DHT22;11227;53.046;10.512;2022-12-18T10:46:34;14.50;99.90
22122;DHT22;11227;53.046;10.512;2022-12-18T10:50:37;14.50;99.90
22122;DHT22;11227;53.046;10.512;2022-12-18T10:55:02;14.50;99.90
22122;DHT22;11227;53.046;10.512;2022-12-18T10:59:09;14.50;99.90
22122;DHT22;11227;53.046;10.512;2022-12-18T11:07:50;14.50;99.90
22122;DHT22;11227;53.046;10.512;2022-12-18T11:11:57;14.50;99.90
22122;DHT22;11227;53.046;10.512;2022-12-18T11:16:00;14.50;99.90
22122;DHT22;11227;53.046;10.512;2022-12-18T11:20:05;14.50;99.90
22122;DHT22;11227;53.046;10.512;2022-12-18T11:24:29;14.50;99.90
22122;DHT22;11227;53.046;10.512;2022-12-18T11:28:47;14.50;99.90
22122;DHT22;11227;53.046;10.512;2022-12-18T11:32:59;14.50;99.90
22122;DHT22;11227;53.046;10.512;2022-12-18T11:37:03;14.50;99.90
22122;DHT22;11227;53.046;10.512;2022-12-18T11:41:30;14.50;99.90
22122;DHT22;11227;53.046;10.512;2022-12-18T11:46:03;14.50;99.90
22122;DHT22;11227;53.046;10.512;2022-12-18T11:50:16;14.50;99.90
22122;DHT22;11227;53.046;10.512;2022-12-18T11:54:18;14.50;99.90
22122;DHT22;11227;53.046;10.512;2022-12-18T11:58:42;14.50;99.90
22122;DHT22;11227;53.046;10.512;2022-12-18T12:07:24;14.50;99.90
22122;DHT22;11227;53.046;10.512;2022-12-18T12:16:13;14.50;99.90
22122;DHT22;11227;53.046;10.512;2022-12-18T12:20:51;14.50;99.90
22122;DHT22;11227;53.046;10.512;2022-12-18T12:25:17;14.50;99.90
22122;DHT22;11227;53.046;10.512;2022-12-18T12:33:47;14.50;99.90
22122;DHT22;11227;53.046;10.512;2022-12-18T12:38:03;14.50;99.90
22122;DHT22;11227;53.046;10.512;2022-12-18T12:42:13;14.50;99.90
22122;DHT22;11227;53.046;10.512;2022-12-18T12:46:38;14.50;99.90
22122;DHT22;11227;53.046;10.512;2022-12-18T12:50:41;14.50;99.90
22122;DHT22;11227;53.046;10.512;2022-12-18T12:54:44;14.50;99.90
22122;DHT22;11227;53.046;10.512;2022-12-18T13:03:37;14.50;99.90
22122;DHT22;11227;53.046;10.512;2022-12-18T13:07:50;14.50;99.90
22122;DHT22;11227;53.046;10.512;2022-12-18T13:11:52;14.50;99.90
22122;DHT22;11227;53.046;10.512;2022-12-18T13:16:19;14.50;99.90
22122;DHT22;11227;53.046;10.512;2022-12-18T13:20:21;14.50;99.90
22122;DHT22;11227;53.046;10.512;2022-12-18T13:24:24;14.50;99.90
22122;DHT22;11227;53.046;10.512;2022-12-18T13:32:34;14.50;99.90
22122;DHT22;11227;53.046;10.512;2022-12-18T13:36:36;14.40;99.90
22122;DHT22;11227;53.046;10.512;2022-12-18T13:44:49;14.50;99.90
22122;DHT22;11227;53.046;10.512;2022-12-18T13:52:59;14.40;99.90
22122;DHT22;11227;53.046;10.512;2022-12-18T13:57:02;14.50;99.90
22122;DHT22;11227;53.046;10.512;2022-12-18T14:01:04;14.50;99.90
22122;DHT22;11227;53.046;10.512;2022-12-18T14:05:25;14.50;99.90
22122;DHT22;11227;53.046;10.512;2022-12-18T14:09:31;14.40;99.90
22122;DHT22;11227;53.046;10.512;2022-12-18T14:13:37;14.40;99.90
22122;DHT22;11227;53.046;10.512;2022-12-18T14:17:43;14.50;99.90
22122;DHT22;11227;53.046;10.512;2022-12-18T14:21:47;14.50;99.90
22122;DHT22;11227;53.046;10.512;2022-12-18T14:25:49;14.40;99.90
22122;DHT22;11227;53.046;10.512;2022-12-18T14:29:54;14.50;99.90
22122;DHT22;11227;53.046;10.512;2022-12-18T14:33:57;14.40;99.90
22122;DHT22;11227;53.046;10.512;2022-12-18T14:42:19;14.40;99.90
22122;DHT22;11227;53.046;10.512;2022-12-18T14:46:36;14.40;99.90
22122;DHT22;11227;53.046;10.512;2022-12-18T14:50:39;14.40;99.90
22122;DHT22;11227;53.046;10.512;2022-12-18T14:54:46;14.40;99.90
22122;DHT22;11227;53.046;10.512;2022-12-18T15:02:56;14.40;99.90
22122;DHT22;11227;53.046;10.512;2022-12-18T15:19:38;14.40;99.90
22122;DHT22;11227;53.046;10.512;2022-12-18T15:27:46;14.40;99.90
22122;DHT22;11227;53.046;10.512;2022-12-18T15:32:03;14.40;99.90
22122;DHT22;11227;53.046;10.512;2022-12-18T15:36:15;14.40;99.90
22122;DHT22;11227;53.046;10.512;2022-12-18T15:40:23;14.40;99.90
22122;DHT22;11227;53.046;10.512;2022-12-18T15:44:25;14.40;99.90
22122;DHT22;11227;53.046;10.512;2022-12-18T15:48:27;14.40;99.90
22122;DHT22;11227;53.046;10.512;2022-12-18T15:52:30;14.50;99.90
22122;DHT22;11227;53.046;10.512;2022-12-18T15:56:32;14.40;99.90
22122;DHT22;11227;53.046;10.512;2022-12-18T16:00:54;14.40;99.90
22122;DHT22;11227;53.046;10.512;2022-12-18T16:04:56;14.50;99.90
22122;DHT22;11227;53.046;10.512;2022-12-18T16:08:58;14.50;99.90
22122;DHT22;11227;53.046;10.512;2022-12-18T16:13:00;14.40;99.90
22122;DHT22;11227;53.046;10.512;2022-12-18T16:17:03;14.50;99.90
22122;DHT22;11227;53.046;10.512;2022-12-18T16:21:07;14.50;99.90
22122;DHT22;11227;53.046;10.512;2022-12-18T16:25:30;14.50;99.90
22122;DHT22;11227;53.046;10.512;2022-12-18T16:29:32;14.50;99.90
22122;DHT22;11227;53.046;10.512;2022-12-18T16:33:34;14.40;99.90
22122;DHT22;11227;53.046;10.512;2022-12-18T16:37:36;14.40;99.90
22122;DHT22;11227;53.046;10.512;2022-12-18T16:41:37;14.40;99.90
22122;DHT22;11227;53.046;10.512;2022-12-18T16:45:39;14.50;99.90
22122;DHT22;11227;53.046;10.512;2022-12-18T16:49:41;14.40;99.90
22122;DHT22;11227;53.046;10.512;2022-12-18T16:53:43;14.40;99.90
22122;DHT22;11227;53.046;10.512;2022-12-18T16:57:45;14.50;99.90
22122;DHT22;11227;53.046;10.512;2022-12-18T17:01:47;14.50;99.90
22122;DHT22;11227;53.046;10.512;2022-12-18T17:05:49;14.50;99.90
22122;DHT22;11227;53.046;10.512;2022-12-18T17:09:54;14.50;99.90
22122;DHT22;11227;53.046;10.512;2022-12-18T17:13:56;14.50;99.90
22122;DHT22;11227;53.046;10.512;2022-12-18T17:17:58;14.50;99.90
22122;DHT22;11227;53.046;10.512;2022-12-18T17:22:00;14.40;99.90
22122;DHT22;11227;53.046;10.512;2022-12-18T17:26:02;14.50;99.90
22122;DHT22;11227;53.046;10.512;2022-12-18T17:30:06;14.50;99.90
22122;DHT22;11227;53.046;10.512;2022-12-18T17:34:09;14.50;99.90
22122;DHT22;11227;53.046;10.512;2022-12-18T17:38:12;14.50;99.90
22122;DHT22;11227;53.046;10.512;2022-12-18T17:42:13;14.50;99.90
22122;DHT22;11227;53.046;10.512;2022-12-18T17:46:16;14.50;99.90
22122;DHT22;11227;53.046;10.512;2022-12-18T17:50:18;14.50;99.90
22122;DHT22;11227;53.046;10.512;2022-12-18T17:54:20;14.50;99.90
22122;DHT22;11227;53.046;10.512;2022-12-18T17:58:22;14.50;99.90
22122;DHT22;11227;53.046;10.512;2022-12-18T18:02:24;14.50;99.90
22122;DHT22;11227;53.046;10.512;2022-12-18T18:06:27;14.50;99.90
22122;DHT22;11227;53.046;10.512;2022-12-18T18:10:30;14.50;99.90
22122;DHT22;11227;53.046;10.512;2022-12-18T18:14:35;14.50;99.90
22122;DHT22;11227;53.046;10.512;2022-12-18T18:18:38;14.50;99.90
22122;DHT22;11227;53.046;10.512;2022-12-18T18:22:40;14.50;99.90
22122;DHT22;11227;53.046;10.512;2022-12-18T18:26:42;14.50;99.90
22122;DHT22;11227;53.046;10.512;2022-12-18T18:30:43;14.50;99.90
22122;DHT22;11227;53.046;10.512;2022-12-18T18:34:45;14.50;99.90
22122;DHT22;11227;53.046;10.512;2022-12-18T18:38:47;14.50;99.90
22122;DHT22;11227;53.046;10.512;2022-12-18T18:42:49;14.30;99.90
22122;DHT22;11227;53.046;10.512;2022-12-18T18:46:55;14.30;99.90
22122;DHT22;11227;53.046;10.512;2022-12-18T18:51:03;14.30;99.90
22122;DHT22;11227;53.046;10.512;2022-12-18T18:55:05;14.20;99.90
22122;DHT22;11227;53.046;10.512;2022-12-18T18:59:26;14.20;99.90
22122;DHT22;11227;53.046;10.512;2022-12-18T19:03:33;14.10;99.90
22122;DHT22;11227;53.046;10.512;2022-12-18T19:07:35;14.10;99.90
22122;DHT22;11227;53.046;10.512;2022-12-18T19:11:38;14.10;99.90
22122;DHT22;11227;53.046;10.512;2022-12-18T19:16:04;14.10;99.90
22122;DHT22;11227;53.046;10.512;2022-12-18T19:20:06;14.00;99.90
22122;DHT22;11227;53.046;10.512;2022-12-18T19:24:11;14.00;99.90
22122;DHT22;11227;53.046;10.512;2022-12-18T19:28:12;14.00;99.90
22122;DHT22;11227;53.046;10.512;2022-12-18T19:32:23;14.00;99.90
22122;DHT22;11227;53.046;10.512;2022-12-18T19:36:29;14.00;99.90
22122;DHT22;11227;53.046;10.512;2022-12-18T19:40:30;14.00;99.90
22122;DHT22;11227;53.046;10.512;2022-12-18T19:44:33;14.00;99.90
22122;DHT22;11227;53.046;10.512;2022-12-18T19:48:35;14.00;99.90
22122;DHT22;11227;53.046;10.512;2022-12-18T19:52:36;14.00;99.90
22122;DHT22;11227;53.046;10.512;2022-12-18T19:56:39;14.00;99.90
22122;DHT22;11227;53.046;10.512;2022-12-18T20:00:40;14.00;99.90
22122;DHT22;11227;53.046;10.512;2022-12-18T20:04:42;14.00;99.90
22122;DHT22;11227;53.046;10.512;2022-12-18T20:08:44;14.00;99.90
22122;DHT22;11227;53.046;10.512;2022-12-18T20:12:46;13.90;99.90
22122;DHT22;11227;53.046;10.512;2022-12-18T20:16:48;13.90;99.90
22122;DHT22;11227;53.046;10.512;2022-12-18T20:20:50;13.90;99.90
22122;DHT22;11227;53.046;10.512;2022-12-18T20:24:52;13.90;99.90
22122;DHT22;11227;53.046;10.512;2022-12-18T20:28:55;13.90;99.90
22122;DHT22;11227;53.046;10.512;2022-12-18T20:32:56;13.90;99.90
22122;DHT22;11227;53.046;10.512;2022-12-18T20:36:58;13.90;99.90
22122;DHT22;11227;53.046;10.512;2022-12-18T20:41:01;13.90;99.90
22122;DHT22;11227;53.046;10.512;2022-12-18T20:45:03;13.90;99.90
22122;DHT22;11227;53.046;10.512;2022-12-18T20:49:05;13.90;99.90
22122;DHT22;11227;53.046;10.512;2022-12-18T20:53:07;13.90;99.90
22122;DHT22;11227;53.046;10.512;2022-12-18T20:57:08;13.90;99.90
22122;DHT22;11227;53.046;10.512;2022-12-18T21:01:16;13.90;99.90
22122;DHT22;11227;53.046;10.512;2022-12-18T21:05:18;13.90;99.90
22122;DHT22;11227;53.046;10.512;2022-12-18T21:09:20;13.90;99.90
22122;DHT22;11227;53.046;10.512;2022-12-18T21:13:22;13.80;99.90
22122;DHT22;11227;53.046;10.512;2022-12-18T21:17:24;13.90;99.90
22122;DHT22;11227;53.046;10.512;2022-12-18T21:21:28;13.80;99.90
22122;DHT22;11227;53.046;10.512;2022-12-18T21:25:32;13.90;99.90
22122;DHT22;11227;53.046;10.512;2022-12-18T21:29:34;13.90;99.90
22122;DHT22;11227;53.046;10.512;2022-12-18T21:33:36;13.90;99.90
22122;DHT22;11227;53.046;10.512;2022-12-18T21:37:38;13.90;99.90
22122;DHT22;11227;53.046;10.512;2022-12-18T21:41:40;13.90;99.90
22122;DHT22;11227;53.046;10.512;2022-12-18T21:46:00;13.90;99.90
22122;DHT22;11227;53.046;10.512;2022-12-18T21:50:03;13.90;99.90
22122;DHT22;11227;53.046;10.512;2022-12-18T21:54:04;13.80;99.90
22122;DHT22;11227;53.046;10.512;2022-12-18T21:58:06;13.90;99.90
22122;DHT22;11227;53.046;10.512;2022-12-18T22:02:17;13.80;99.90
22122;DHT22;11227;53.046;10.512;2022-12-18T22:06:20;13.90;99.90
22122;DHT22;11227;53.046;10.512;2022-12-18T22:10:22;13.80;99.90
22122;DHT22;11227;53.046;10.512;2022-12-18T22:14:24;13.80;99.90
22122;DHT22;11227;53.046;10.512;2022-12-18T22:18:26;13.80;99.90
22122;DHT22;11227;53.046;10.512;2022-12-18T22:22:28;13.80;99.90
22122;DHT22;11227;53.046;10.512;2022-12-18T22:26:32;13.80;99.90
22122;DHT22;11227;53.046;10.512;2022-12-18T22:30:40;13.80;99.90
22122;DHT22;11227;53.046;10.512;2022-12-18T22:34:42;13.80;99.90
22122;DHT22;11227;53.046;10.512;2022-12-18T22:38:45;13.80;99.90
22122;DHT22;11227;53.046;10.512;2022-12-18T22:42:47;13.70;99.90
22122;DHT22;11227;53.046;10.512;2022-12-18T22:46:53;13.80;99.90
22122;DHT22;11227;53.046;10.512;2022-12-18T22:51:14;13.70;99.90
22122;DHT22;11227;53.046;10.512;2022-12-18T22:55:16;13.70;99.90
22122;DHT22;11227;53.046;10.512;2022-12-18T22:59:20;13.70;99.90
22122;DHT22;11227;53.046;10.512;2022-12-18T23:03:23;13.70;99.90
22122;DHT22;11227;53.046;10.512;2022-12-18T23:07:25;13.70;99.90
22122;DHT22;11227;53.046;10.512;2022-12-18T23:11:27;13.70;99.90
22122;DHT22;11227;53.046;10.512;2022-12-18T23:15:29;13.70;99.90
22122;DHT22;11227;53.046;10.512;2022-12-18T23:19:32;13.70;99.90
22122;DHT22;11227;53.046;10.512;2022-12-18T23:23:34;13.70;99.90
22122;DHT22;11227;53.046;10.512;2022-12-18T23:27:36;13.70;99.90
22122;DHT22;11227;53.046;10.512;2022-12-18T23:31:38;13.70;99.90
22122;DHT22;11227;53.046;10.512;2022-12-18T23:35:40;13.70;99.90
22122;DHT22;11227;53.046;10.512;2022-12-18T23:39:41;13.70;99.90
22122;DHT22;11227;53.046;10.512;2022-12-18T23:43:44;13.70;99.90
22122;DHT22;11227;53.046;10.512;2022-12-18T23:47:47;13.70;99.90
22122;DHT22;11227;53.046;10.512;2022-12-18T23:51:53;13.70;99.90
22122;DHT22;11227;53.046;10.512;2022-12-18T23:55:55;13.70;99.90
22122;DHT22;11227;53.046;10.512;2022-12-18T23:59:57;13.70;99.90
